Time;durP1;ratioP1;P1;durP2;ratioP2;P2;SDS_P1;SDS_P2;PMS_P1;PMS_P2;Temp;Humidity;BMP_temperature;BMP_pressure;BME280_temperature;BME280_humidity;BME280_pressure;Samples;Min_cycle;Max_cycle;Signal;HPM_P1;HPM_P2
2021/09/04 00:00:45;;;;;;;3.05;2.05;;;;;;;12.14;87.51;95253.97;5085858;28;20056;-66
2021/09/04 00:03:12;;;;;;;3.28;2.13;;;;;;;12.07;87.47;95244.69;5085742;28;20035;-67
2021/09/04 00:05:40;;;;;;;3.17;1.88;;;;;;;12.10;87.99;95254.63;5084217;28;20413;-67
2021/09/04 00:08:06;;;;;;;3.40;2.55;;;;;;;12.13;87.54;95256.81;5086151;28;20039;-67
2021/09/04 00:10:33;;;;;;;3.92;2.03;;;;;;;11.95;88.33;95258.50;5085818;28;20040;-66
2021/09/04 00:13:02;;;;;;;2.63;1.75;;;;;;;11.97;88.38;95256.47;5088014;28;20028;-67
2021/09/04 00:15:30;;;;;;;5.20;3.08;;;;;;;11.95;90.12;95253.28;5085688;28;20048;-67
2021/09/04 00:17:57;;;;;;;5.07;2.38;;;;;;;11.94;92.76;95262.16;5085396;28;20036;-67
2021/09/04 00:20:24;;;;;;;3.95;2.33;;;;;;;11.92;92.91;95269.44;5085653;28;20044;-67
2021/09/04 00:22:50;;;;;;;3.88;2.25;;;;;;;11.89;92.19;95269.84;5086005;28;20032;-67
2021/09/04 00:25:18;;;;;;;4.20;2.00;;;;;;;11.86;92.07;95267.69;5085497;28;20054;-67
2021/09/04 00:27:44;;;;;;;3.55;2.05;;;;;;;11.83;92.11;95265.56;5085017;28;20048;-67
2021/09/04 00:30:13;;;;;;;3.13;2.00;;;;;;;11.83;91.90;95270.78;5085397;28;20036;-66
2021/09/04 00:32:40;;;;;;;3.97;2.42;;;;;;;11.89;91.92;95272.47;5088808;28;20066;-67
2021/09/04 00:35:08;;;;;;;3.53;1.90;;;;;;;11.90;91.36;95266.22;5084815;28;20052;-67
2021/09/04 00:37:35;;;;;;;4.38;2.25;;;;;;;11.97;90.62;95261.69;5086884;28;20036;-67
2021/09/04 00:40:04;;;;;;;3.25;2.08;;;;;;;11.95;91.39;95262.94;5089505;28;20043;-67
2021/09/04 00:42:31;;;;;;;3.88;2.78;;;;;;;12.00;90.71;95266.47;5086576;28;20032;-67
2021/09/04 00:44:58;;;;;;;4.32;2.63;;;;;;;11.98;90.09;95267.72;5084494;28;20054;-67
2021/09/04 00:47:26;;;;;;;4.95;1.52;;;;;;;11.94;89.15;95256.94;5084395;28;20141;-67
2021/09/04 00:49:52;;;;;;;3.70;2.47;;;;;;;11.97;89.32;95264.28;5084806;28;20040;-67
2021/09/04 00:52:19;;;;;;;2.85;2.47;;;;;;;11.93;88.78;95260.56;5084657;28;20036;-67
2021/09/04 00:54:46;;;;;;;2.95;2.15;;;;;;;11.88;88.42;95257.81;5085253;28;20048;-68
2021/09/04 00:57:19;;;;;;;5.28;2.20;;;;;;;11.82;87.78;95258.72;5084858;28;20048;-67
2021/09/04 00:59:46;;;;;;;4.20;2.58;;;;;;;11.76;88.30;95259.66;5087477;28;20040;-67
2021/09/04 01:02:16;;;;;;;4.28;3.10;;;;;;;11.71;88.07;95251.72;5084757;28;20107;-66
2021/09/04 01:04:44;;;;;;;4.40;2.17;;;;;;;11.65;88.71;95259.41;5084942;28;20044;-67
2021/09/04 01:07:12;;;;;;;3.45;1.83;;;;;;;11.60;88.90;95256.69;5087207;28;20046;-67
2021/09/04 01:09:40;;;;;;;3.03;1.85;;;;;;;11.56;88.98;95250.34;5085166;28;20048;-67
2021/09/04 01:12:08;;;;;;;4.63;2.47;;;;;;;11.55;88.53;95253.97;5085490;28;20123;-66
2021/09/04 01:14:35;;;;;;;3.03;2.00;;;;;;;11.52;88.61;95257.00;5085881;28;20036;-66
2021/09/04 01:17:02;;;;;;;3.47;1.85;;;;;;;11.43;88.49;95242.72;5088158;28;20040;-67
2021/09/04 01:19:28;;;;;;;3.25;2.03;;;;;;;11.36;88.80;95244.63;5089221;28;20036;-67
2021/09/04 01:21:55;;;;;;;3.72;2.47;;;;;;;11.32;88.63;95246.13;5088941;28;20044;-67
2021/09/04 01:24:22;;;;;;;3.70;1.73;;;;;;;11.27;88.92;95242.38;5100308;28;20036;-67
2021/09/04 01:26:49;;;;;;;4.32;2.15;;;;;;;11.20;89.22;95226.03;5108728;28;22114;-67
2021/09/04 01:29:16;;;;;;;5.53;2.80;;;;;;;11.21;89.20;95227.63;5109181;28;20054;-66
2021/09/04 01:31:43;;;;;;;2.92;2.03;;;;;;;11.16;89.12;95224.88;5109012;28;20529;-67
2021/09/04 01:34:10;;;;;;;3.35;2.58;;;;;;;11.11;89.26;95224.78;5097066;28;20500;-66
2021/09/04 01:36:41;;;;;;;4.90;3.28;;;;;;;11.09;89.47;95221.59;5088916;28;20123;-66
2021/09/04 01:39:09;;;;;;;3.63;2.42;;;;;;;11.03;89.49;95214.66;5094034;28;20044;-67
2021/09/04 01:41:40;;;;;;;4.25;2.22;;;;;;;10.97;89.74;95215.56;5107551;28;20053;-67
2021/09/04 01:44:07;;;;;;;3.78;2.28;;;;;;;10.97;89.88;95218.19;5108928;28;20035;-67
2021/09/04 01:46:34;;;;;;;3.95;2.55;;;;;;;10.91;89.85;95222.44;5108992;28;20097;-67
2021/09/04 01:49:03;;;;;;;3.90;2.22;;;;;;;10.86;89.69;95220.53;5093514;28;20039;-67
2021/09/04 01:51:30;;;;;;;3.50;2.38;;;;;;;10.81;89.72;95223.00;5090637;28;20047;-67
2021/09/04 01:53:56;;;;;;;3.65;2.22;;;;;;;10.81;90.49;95217.78;5088382;28;20097;-66
2021/09/04 01:56:23;;;;;;;3.88;2.88;;;;;;;10.79;90.57;95219.81;5106116;28;20100;-66
2021/09/04 01:58:50;;;;;;;4.38;2.28;;;;;;;10.76;90.53;95228.06;5108512;28;20058;-67
2021/09/04 02:01:17;;;;;;;3.10;1.98;;;;;;;10.76;90.70;95220.25;5108580;28;20081;-67
2021/09/04 02:03:44;;;;;;;4.28;2.70;;;;;;;10.74;90.55;95219.69;5108634;28;20078;-67
2021/09/04 02:06:11;;;;;;;3.30;2.00;;;;;;;10.68;91.11;95207.56;5108367;28;20047;-66
2021/09/04 02:08:38;;;;;;;4.85;2.53;;;;;;;10.69;90.77;95217.75;5108181;28;20051;-67
2021/09/04 02:11:05;;;;;;;4.07;2.67;;;;;;;10.60;91.08;95210.47;5108425;28;20050;-67
2021/09/04 02:13:31;;;;;;;4.25;2.88;;;;;;;10.66;91.64;95220.81;5102351;28;20032;-67
2021/09/04 02:15:58;;;;;;;4.55;2.58;;;;;;;10.66;91.55;95209.56;5085592;28;20082;-67
2021/09/04 02:18:27;;;;;;;3.50;2.67;;;;;;;10.66;91.80;95214.78;5088020;28;20042;-67
2021/09/04 02:20:56;;;;;;;3.20;2.58;;;;;;;10.64;91.64;95206.41;5088269;28;20076;-67
2021/09/04 02:23:23;;;;;;;4.70;2.58;;;;;;;10.70;91.62;95205.53;5087661;28;20091;-67
2021/09/04 02:25:49;;;;;;;4.15;2.72;;;;;;;10.71;91.79;95202.72;5086957;28;20436;-67
2021/09/04 02:28:17;;;;;;;3.05;2.42;;;;;;;10.75;91.64;95191.81;5087259;28;20043;-67
2021/09/04 02:30:45;;;;;;;3.38;2.38;;;;;;;10.75;92.05;95192.63;5088103;28;20482;-67
2021/09/04 02:33:12;;;;;;;5.03;2.25;;;;;;;10.75;91.62;95191.81;5086197;28;20032;-67
2021/09/04 02:35:40;;;;;;;4.55;2.35;;;;;;;10.74;91.45;95196.25;5087944;28;20504;-67
2021/09/04 02:38:08;;;;;;;4.00;2.63;;;;;;;10.73;91.15;95197.25;5099764;28;20031;-67
2021/09/04 02:40:36;;;;;;;3.38;2.05;;;;;;;10.63;91.08;95184.00;5089972;28;20040;-67
2021/09/04 02:43:03;;;;;;;3.03;2.22;;;;;;;10.65;90.81;95202.78;5087551;28;20027;-67
2021/09/04 02:45:33;;;;;;;3.83;2.35;;;;;;;10.60;90.69;95197.44;5086727;28;20036;-67
2021/09/04 02:48:00;;;;;;;4.15;2.83;;;;;;;10.62;91.49;95200.63;5087417;28;20043;-67
2021/09/04 02:50:28;;;;;;;4.20;2.63;;;;;;;10.57;91.64;95200.50;5090079;28;20143;-67
2021/09/04 02:52:55;;;;;;;8.13;2.78;;;;;;;10.52;91.53;95191.53;5087325;28;20040;-67
2021/09/04 02:55:23;;;;;;;4.38;2.53;;;;;;;10.51;91.61;95197.78;5087351;28;20421;-67
2021/09/04 02:57:50;;;;;;;5.05;2.67;;;;;;;10.54;91.35;95185.31;5087733;28;20044;-67
2021/09/04 03:00:18;;;;;;;2.38;1.88;;;;;;;10.52;91.71;95188.94;5087364;28;20036;-68
2021/09/04 03:02:47;;;;;;;4.43;2.90;;;;;;;10.49;92.03;95173.75;5087356;28;20050;-68
2021/09/04 03:05:15;;;;;;;5.47;2.60;;;;;;;10.46;92.49;95174.22;5087159;28;20054;-67
2021/09/04 03:07:41;;;;;;;3.85;2.50;;;;;;;10.44;92.36;95186.66;5087183;28;20046;-67
2021/09/04 03:10:09;;;;;;;3.65;2.65;;;;;;;10.39;92.11;95189.13;5086769;28;20100;-67
2021/09/04 03:12:36;;;;;;;7.80;3.15;;;;;;;10.35;92.32;95185.34;5107010;28;20032;-67
2021/09/04 03:15:04;;;;;;;4.18;2.97;;;;;;;10.30;92.60;95177.41;5107181;28;20032;-67
2021/09/04 03:17:32;;;;;;;3.80;2.97;;;;;;;10.17;94.88;95185.34;5097888;28;20497;-67
2021/09/04 03:20:01;;;;;;;5.85;2.58;;;;;;;10.10;94.50;95181.03;5094906;28;20381;-67
2021/09/04 03:22:28;;;;;;;4.40;2.90;;;;;;;10.16;94.10;95183.78;5107018;28;20039;-67
2021/09/04 03:24:56;;;;;;;4.25;2.78;;;;;;;10.06;93.72;95168.66;5106970;28;20131;-67
2021/09/04 03:27:23;;;;;;;4.70;2.92;;;;;;;10.11;93.33;95177.41;5085334;28;20048;-67
2021/09/04 03:29:49;;;;;;;4.07;2.45;;;;;;;10.08;93.62;95188.28;5089869;28;20051;-67
2021/09/04 03:32:16;;;;;;;4.97;2.67;;;;;;;10.07;93.50;95186.66;5106799;28;20042;-67
2021/09/04 03:34:45;;;;;;;4.47;2.58;;;;;;;10.08;93.15;95188.28;5106586;28;20039;-69
2021/09/04 03:37:12;;;;;;;7.53;2.80;;;;;;;10.04;93.07;95187.09;5106771;28;20043;-67
2021/09/04 03:39:39;;;;;;;4.18;2.72;;;;;;;9.99;92.97;95189.56;5099680;28;20055;-67
2021/09/04 03:42:07;;;;;;;5.38;3.10;;;;;;;9.93;93.22;95170.41;5090857;28;20051;-67
2021/09/04 03:44:35;;;;;;;6.65;2.47;;;;;;;10.00;94.65;95185.97;5085648;28;20060;-67
2021/09/04 03:47:04;;;;;;;4.75;2.28;;;;;;;10.02;95.23;95194.34;5086619;28;20044;-68
2021/09/04 03:49:31;;;;;;;3.60;2.67;;;;;;;10.05;95.63;95188.69;5092017;28;20039;-68
2021/09/04 03:51:58;;;;;;;4.97;3.75;;;;;;;10.06;95.00;95179.88;5085730;28;20135;-67
2021/09/04 03:54:26;;;;;;;5.93;2.88;;;;;;;10.13;94.22;95196.19;5094887;28;20405;-67
2021/09/04 03:56:53;;;;;;;6.40;3.42;;;;;;;10.10;94.17;95201.84;5086019;28;20048;-67
2021/09/04 03:59:22;;;;;;;4.38;3.10;;;;;;;10.06;93.86;95200.69;5086442;28;20032;-67
2021/09/04 04:01:50;;;;;;;7.75;2.80;;;;;;;10.04;94.21;95202.72;5086088;28;20136;-67
2021/09/04 04:04:17;;;;;;;5.20;3.28;;;;;;;10.12;94.96;95205.03;5085990;28;20089;-67
2021/09/04 04:06:44;;;;;;;5.22;3.83;;;;;;;10.13;96.05;95201.41;5086220;28;20089;-67
2021/09/04 04:09:12;;;;;;;3.90;2.50;;;;;;;10.14;95.97;95203.00;5085948;28;20052;-67
2021/09/04 04:11:40;;;;;;;6.22;2.65;;;;;;;10.11;95.43;95193.03;5084786;28;20487;-67
2021/09/04 04:14:07;;;;;;;6.03;3.05;;;;;;;10.03;95.36;95189.91;5086173;28;20032;-67
2021/09/04 04:16:36;;;;;;;4.57;3.20;;;;;;;9.98;95.12;95187.97;5103292;28;20031;-67
2021/09/04 04:19:04;;;;;;;6.15;2.75;;;;;;;10.02;95.25;95193.56;5105229;28;20098;-67
2021/09/04 04:21:33;;;;;;;4.65;2.63;;;;;;;10.06;95.45;95198.09;5106203;28;20031;-67
2021/09/04 04:24:00;;;;;;;4.80;2.55;;;;;;;10.04;94.61;95200.13;5105965;28;20036;-67
2021/09/04 04:26:27;;;;;;;4.75;2.80;;;;;;;10.09;94.78;95210.66;5105940;28;20055;-67
2021/09/04 04:28:54;;;;;;;5.57;2.92;;;;;;;10.11;94.55;95203.44;5105957;28;20092;-67
2021/09/04 04:31:21;;;;;;;3.75;2.65;;;;;;;10.13;94.30;95198.81;5106184;28;20134;-67
2021/09/04 04:33:49;;;;;;;3.38;2.72;;;;;;;10.11;94.31;95206.03;5105879;28;20180;-67
2021/09/04 04:36:17;;;;;;;5.00;2.80;;;;;;;10.16;94.66;95207.22;5106008;28;20032;-67
2021/09/04 04:38:45;;;;;;;5.38;3.47;;;;;;;10.19;95.07;95209.34;5087069;28;20501;-67
2021/09/04 04:41:13;;;;;;;5.28;3.08;;;;;;;10.26;95.33;95197.06;5106072;28;20039;-67
2021/09/04 04:43:40;;;;;;;5.53;2.95;;;;;;;10.30;95.82;95208.63;5105856;28;20408;-67
2021/09/04 04:46:07;;;;;;;4.60;3.55;;;;;;;10.39;95.84;95199.53;5086606;28;20097;-67
2021/09/04 04:48:38;;;;;;;12.07;3.25;;;;;;;10.45;96.37;95206.47;5086233;28;20052;-67
2021/09/04 04:51:06;;;;;;;5.57;4.15;;;;;;;10.48;96.79;95193.00;5092631;28;20028;-68
2021/09/04 04:53:34;;;;;;;4.22;2.78;;;;;;;10.62;97.80;95203.22;5090180;28;20143;-67
2021/09/04 04:56:02;;;;;;;5.82;2.75;;;;;;;10.68;97.76;95212.78;5089807;28;20050;-67
2021/09/04 04:58:29;;;;;;;3.47;2.75;;;;;;;10.66;97.87;95199.97;5089569;28;20040;-67
2021/09/04 05:00:57;;;;;;;5.20;2.88;;;;;;;10.82;98.17;95208.97;5089771;28;20040;-67
2021/09/04 05:03:25;;;;;;;3.80;2.60;;;;;;;10.83;98.24;95215.75;5098574;28;20088;-67
2021/09/04 05:05:53;;;;;;;4.18;2.63;;;;;;;10.84;98.80;95206.94;5109708;28;20467;-68
2021/09/04 05:08:21;;;;;;;5.75;3.25;;;;;;;11.06;99.49;95216.84;5109603;28;20426;-67
2021/09/04 05:10:48;;;;;;;6.68;3.80;;;;;;;11.18;99.61;95220.25;5104434;28;20040;-68
2021/09/04 05:13:15;;;;;;;8.02;4.30;;;;;;;11.35;99.99;95232.63;5093124;28;20093;-67
2021/09/04 05:15:42;;;;;;;6.50;4.03;;;;;;;11.48;100.00;95227.19;5109366;28;20504;-67
2021/09/04 05:18:10;;;;;;;5.68;4.10;;;;;;;11.56;100.00;95219.03;5109992;28;21032;-68
2021/09/04 05:20:42;;;;;;;6.10;4.13;;;;;;;11.59;100.00;95221.19;5088717;28;20560;-67
2021/09/04 05:23:11;;;;;;;5.03;3.30;;;;;;;11.62;100.00;95218.13;5088926;28;20037;-67
2021/09/04 05:25:39;;;;;;;4.93;3.00;;;;;;;11.61;100.00;95216.53;5087626;28;20040;-67
2021/09/04 05:28:06;;;;;;;4.97;3.03;;;;;;;11.58;100.00;95201.34;5089205;28;20044;-68
2021/09/04 05:30:33;;;;;;;4.55;3.22;;;;;;;11.67;100.00;95207.81;5089357;28;20459;-68
2021/09/04 05:33:00;;;;;;;5.50;3.35;;;;;;;11.80;100.00;95211.19;5102490;28;20044;-67
2021/09/04 05:35:27;;;;;;;5.57;4.15;;;;;;;11.82;100.00;95211.75;5096970;27;20280;-67
2021/09/04 05:37:54;;;;;;;4.20;3.28;;;;;;;11.91;100.00;95215.63;5087813;28;20040;-68
2021/09/04 05:40:21;;;;;;;5.47;3.80;;;;;;;11.96;99.41;95222.78;5104700;28;20396;-67
2021/09/04 05:42:48;;;;;;;5.20;3.70;;;;;;;11.95;99.14;95221.97;5109113;28;20100;-68
2021/09/04 05:45:15;;;;;;;5.22;3.20;;;;;;;12.02;99.79;95227.84;5108998;28;23208;-68
2021/09/04 05:47:42;;;;;;;7.85;4.70;;;;;;;12.07;99.28;95223.78;5108991;28;20042;-68
2021/09/04 05:50:09;;;;;;;6.40;3.85;;;;;;;12.08;99.36;95214.91;5093951;28;20044;-67
2021/09/04 05:52:35;;;;;;;5.32;3.25;;;;;;;12.22;99.57;95226.69;5089004;28;20055;-68
2021/09/04 05:55:03;;;;;;;5.35;3.50;;;;;;;12.26;98.14;95217.38;5108597;28;20047;-67
2021/09/04 05:57:30;;;;;;;5.47;3.90;;;;;;;12.47;97.70;95220.38;5108903;28;20048;-67
2021/09/04 05:59:57;;;;;;;5.03;3.50;;;;;;;12.48;96.70;95214.13;5108647;28;20044;-67
2021/09/04 06:02:24;;;;;;;4.53;3.30;;;;;;;12.65;96.64;95225.41;5087471;28;20036;-67
2021/09/04 06:04:51;;;;;;;5.60;3.70;;;;;;;12.76;96.41;95224.56;5087965;28;20518;-67
2021/09/04 06:07:17;;;;;;;7.80;3.72;;;;;;;12.84;96.74;95231.25;5087123;28;20040;-67
2021/09/04 06:09:44;;;;;;;5.13;3.20;;;;;;;12.93;95.74;95231.66;5088581;28;20048;-67
2021/09/04 06:12:11;;;;;;;5.03;3.75;;;;;;;12.96;95.23;95225.94;5086530;28;20043;-67
2021/09/04 06:14:38;;;;;;;4.78;3.30;;;;;;;13.08;95.02;95218.84;5095521;28;20480;-68
2021/09/04 06:17:04;;;;;;;4.85;3.17;;;;;;;13.15;94.67;95219.47;5091576;28;20456;-68
2021/09/04 06:19:31;;;;;;;6.18;4.28;;;;;;;13.22;93.56;95228.97;5085659;28;20039;-68
2021/09/04 06:21:58;;;;;;;4.85;3.45;;;;;;;13.22;93.45;95226.34;5095474;27;20065;-68
2021/09/04 06:24:24;;;;;;;7.95;4.40;;;;;;;13.35;92.89;95223.47;5086028;28;20051;-69
2021/09/04 06:26:51;;;;;;;5.22;3.75;;;;;;;13.48;93.02;95230.22;5105150;27;20057;-68
2021/09/04 06:29:18;;;;;;;8.07;3.78;;;;;;;13.52;92.00;95236.53;5086773;28;20040;-67
2021/09/04 06:31:45;;;;;;;7.22;4.05;;;;;;;13.58;93.13;95228.53;5096787;28;20059;-68
2021/09/04 06:34:11;;;;;;;7.18;4.57;;;;;;;13.77;93.41;95220.41;5105367;27;20128;-68
2021/09/04 06:36:38;;;;;;;6.68;3.33;;;;;;;13.92;92.49;95228.47;5088951;28;20048;-68
2021/09/04 06:39:05;;;;;;;5.18;3.65;;;;;;;14.06;91.08;95217.66;5103406;27;20059;-68
2021/09/04 06:41:32;;;;;;;6.82;4.20;;;;;;;14.18;90.33;95210.47;5104525;28;20043;-67
2021/09/04 06:43:58;;;;;;;6.25;4.00;;;;;;;14.39;89.79;95205.47;5099922;27;20105;-68
2021/09/04 06:46:26;;;;;;;9.55;3.90;;;;;;;14.55;88.64;95212.47;5086391;28;20043;-68
2021/09/04 06:48:53;;;;;;;6.95;3.72;;;;;;;14.64;87.95;95205.78;5100465;27;20048;-68
2021/09/04 06:51:19;;;;;;;5.57;3.88;;;;;;;14.77;87.88;95214.28;5081524;28;20052;-68
2021/09/04 06:53:46;;;;;;;6.50;4.32;;;;;;;14.93;86.73;95215.19;5084983;28;20048;-68
2021/09/04 06:56:15;;;;;;;4.28;3.05;;;;;;;15.15;84.85;95213.31;5088282;28;20040;-67
2021/09/04 06:58:41;;;;;;;6.25;3.30;;;;;;;15.31;83.84;95214.22;5086201;28;20164;-68
2021/09/04 07:01:08;;;;;;;5.07;3.45;;;;;;;15.42;81.12;95213.25;5086524;28;20040;-67
2021/09/04 07:03:36;;;;;;;4.53;2.70;;;;;;;15.57;82.34;95219.66;5086941;28;20036;-67
2021/09/04 07:06:04;;;;;;;5.63;2.53;;;;;;;15.78;80.07;95208.25;5087713;28;20040;-68
2021/09/04 07:08:30;;;;;;;4.35;3.13;;;;;;;15.90;78.80;95199.38;5086415;28;20051;-67
2021/09/04 07:10:57;;;;;;;4.35;2.47;;;;;;;16.07;78.51;95197.38;5085443;28;20101;-67
2021/09/04 07:13:24;;;;;;;4.38;2.63;;;;;;;16.20;76.10;95196.91;5093876;28;20047;-68
2021/09/04 07:15:51;;;;;;;4.65;2.42;;;;;;;16.22;75.82;95194.00;5089537;28;20044;-68
2021/09/04 07:18:20;;;;;;;5.13;3.25;;;;;;;16.33;76.18;95200.09;5086236;28;20063;-68
2021/09/04 07:20:47;;;;;;;4.03;3.58;;;;;;;16.48;76.71;95196.75;5086541;28;20497;-68
2021/09/04 07:23:14;;;;;;;4.68;2.85;;;;;;;16.49;75.06;95188.56;5087476;28;20089;-68
2021/09/04 07:25:41;;;;;;;4.70;2.75;;;;;;;16.71;75.79;95191.03;5090064;28;20040;-68
2021/09/04 07:28:08;;;;;;;4.18;2.83;;;;;;;16.79;71.29;95192.34;5081756;28;20032;-68
2021/09/04 07:30:34;;;;;;;5.00;2.78;;;;;;;16.84;72.65;95189.75;5086900;28;20044;-68
2021/09/04 07:33:02;;;;;;;5.95;2.65;;;;;;;16.97;70.59;95197.13;5085870;28;20044;-68
2021/09/04 07:35:29;;;;;;;4.00;2.47;;;;;;;17.10;71.15;95202.91;5084857;28;20432;-68
2021/09/04 07:37:59;;;;;;;3.75;2.90;;;;;;;17.29;70.70;95206.63;5084719;28;20037;-68
2021/09/04 07:40:26;;;;;;;3.33;2.50;;;;;;;17.46;70.40;95200.28;5087298;28;20050;-67
2021/09/04 07:42:53;;;;;;;3.35;2.28;;;;;;;17.69;69.60;95199.72;5087023;28;20409;-68
2021/09/04 07:45:19;;;;;;;4.95;2.95;;;;;;;17.73;70.40;95198.13;5086004;28;20142;-68
2021/09/04 07:47:46;;;;;;;4.65;2.67;;;;;;;17.88;68.93;95201.81;5080409;28;20040;-68
2021/09/04 07:50:13;;;;;;;10.02;3.70;;;;;;;17.90;68.90;95205.00;5087642;27;20103;-68
2021/09/04 07:52:40;;;;;;;4.47;2.92;;;;;;;18.02;69.04;95213.38;5085137;28;20826;-68
2021/09/04 07:55:07;;;;;;;8.32;2.63;;;;;;;18.23;66.57;95223.84;5089067;28;20052;-68
2021/09/04 07:57:34;;;;;;;4.15;2.50;;;;;;;18.28;65.51;95226.47;5084480;28;20040;-69
2021/09/04 08:00:00;;;;;;;3.53;2.05;;;;;;;18.23;65.87;95219.38;5086755;28;20044;-69
2021/09/04 08:02:37;;;;;;;4.47;2.95;;;;;;;18.41;64.67;95225.09;5084984;28;20062;-69
2021/09/04 08:05:05;;;;;;;3.90;2.58;;;;;;;18.48;63.76;95226.38;5086314;28;20418;-69
2021/09/04 08:07:33;;;;;;;3.38;2.25;;;;;;;18.68;64.01;95222.06;5088918;28;20455;-68
2021/09/04 08:09:59;;;;;;;6.15;3.72;;;;;;;18.84;62.37;95220.16;5086853;28;20548;-68
2021/09/04 08:12:27;;;;;;;4.80;2.50;;;;;;;19.01;61.05;95217.16;5084328;28;20831;-69
2021/09/04 08:14:54;;;;;;;2.90;1.98;;;;;;;18.98;60.77;95201.84;5083860;28;20036;-66
2021/09/04 08:17:21;;;;;;;5.57;2.97;;;;;;;19.11;64.20;95211.81;5084923;28;20082;-69
2021/09/04 08:19:47;;;;;;;6.75;2.40;;;;;;;19.29;59.60;95218.28;5092688;28;20089;-69
2021/09/04 08:22:14;;;;;;;3.50;2.08;;;;;;;19.50;58.69;95224.19;5103303;28;20039;-69
2021/09/04 08:24:42;;;;;;;3.38;2.53;;;;;;;19.64;57.85;95208.47;5102669;28;20516;-69
2021/09/04 08:27:08;;;;;;;2.85;2.00;;;;;;;19.88;56.26;95219.09;5106231;28;20109;-69
2021/09/04 08:29:35;;;;;;;2.67;2.05;;;;;;;19.97;55.86;95220.06;5101073;28;20077;-69
2021/09/04 08:32:02;;;;;;;2.90;1.95;;;;;;;20.09;55.24;95221.53;5103265;28;20401;-69
2021/09/04 08:34:29;;;;;;;3.45;2.03;;;;;;;20.14;53.49;95221.47;5090258;28;20040;-69
2021/09/04 08:36:56;;;;;;;2.30;1.90;;;;;;;20.41;52.67;95221.66;5094571;28;20040;-68
2021/09/04 08:39:23;;;;;;;4.03;2.28;;;;;;;20.43;51.34;95208.94;5100472;28;20040;-69
2021/09/04 08:41:49;;;;;;;2.42;1.92;;;;;;;20.64;50.64;95219.31;5097424;28;20062;-68
2021/09/04 08:44:16;;;;;;;3.13;2.10;;;;;;;20.61;52.07;95206.63;5081718;28;20044;-68
2021/09/04 08:46:43;;;;;;;2.03;1.67;;;;;;;20.77;48.38;95218.59;5094967;28;20098;-68
2021/09/04 08:49:10;;;;;;;3.75;2.13;;;;;;;20.92;49.16;95224.75;5095313;27;20064;-69
2021/09/04 08:51:37;;;;;;;2.88;1.95;;;;;;;21.01;48.28;95228.31;5096264;28;20084;-68
2021/09/04 08:54:04;;;;;;;2.67;1.83;;;;;;;21.02;47.82;95229.91;5090220;27;20051;-69
2021/09/04 08:56:31;;;;;;;3.38;1.90;;;;;;;21.18;48.20;95218.00;5103902;28;20043;-68
2021/09/04 08:58:58;;;;;;;4.38;2.25;;;;;;;21.48;47.47;95216.00;5098562;28;20112;-68
2021/09/04 09:01:28;;;;;;;3.47;2.38;;;;;;;21.51;47.06;95214.59;5088216;28;20056;-69
2021/09/04 09:04:01;;;;;;;2.92;2.30;;;;;;;21.88;46.76;95215.56;5087509;28;20052;-68
2021/09/04 09:06:33;;;;;;;4.43;2.53;;;;;;;21.91;50.21;95220.28;5095384;28;20036;-68
2021/09/04 09:09:14;;;;;;;8.43;2.47;;;;;;;22.03;46.31;95222.47;5106367;27;20079;-68
2021/09/04 09:11:41;;;;;;;7.82;2.90;;;;;;;21.92;46.10;95227.94;5096694;28;20051;-68
2021/09/04 09:14:08;;;;;;;3.72;2.85;;;;;;;22.09;45.70;95218.63;5107454;27;20063;-68
2021/09/04 09:16:47;;;;;;;3.38;2.40;;;;;;;22.30;43.10;95209.22;5086857;28;20039;-68
2021/09/04 09:19:14;;;;;;;3.95;2.20;;;;;;;22.42;43.56;95207.91;5095155;27;20123;-68
2021/09/04 09:21:42;;;;;;;5.13;2.75;;;;;;;22.76;45.02;95215.47;5097856;28;20054;-68
2021/09/04 09:24:14;;;;;;;4.05;3.08;;;;;;;23.09;41.38;95207.31;5101401;27;20048;-68
2021/09/04 09:27:13;;;;;;;3.33;2.30;;;;;;;23.34;42.45;95203.28;5092233;28;20043;-68
2021/09/04 09:29:47;;;;;;;3.15;1.90;;;;;;;23.64;41.68;95200.94;5084750;28;20134;-69
2021/09/04 09:32:14;;;;;;;3.20;2.38;;;;;;;23.94;39.81;95199.38;5092148;28;20043;-68
2021/09/04 09:34:45;;;;;;;4.53;2.75;;;;;;;24.17;40.19;95186.03;5093006;28;20055;-68
2021/09/04 09:37:13;;;;;;;3.08;2.28;;;;;;;24.54;40.29;95182.06;5087330;28;20048;-68
2021/09/04 09:39:45;;;;;;;2.03;1.50;;;;;;;25.06;37.65;95177.84;5089941;28;20052;-68
2021/09/04 09:42:13;;;;;;;2.75;1.75;;;;;;;25.31;37.11;95185.06;5091302;28;20507;-68
2021/09/04 09:44:41;;;;;;;2.45;1.95;;;;;;;25.67;36.90;95181.22;5091629;28;20044;-69
2021/09/04 09:47:12;;;;;;;2.65;1.80;;;;;;;25.41;35.92;95170.63;5092673;28;20040;-68
2021/09/04 09:49:43;;;;;;;2.72;2.08;;;;;;;25.22;38.96;95170.16;5095344;27;20067;-68
2021/09/04 09:52:13;;;;;;;2.65;1.73;;;;;;;25.57;35.25;95162.91;5090391;28;20036;-69
2021/09/04 09:54:41;;;;;;;2.15;1.95;;;;;;;25.43;35.53;95154.31;5091754;28;20047;-69
2021/09/04 09:57:10;;;;;;;2.95;1.77;;;;;;;25.54;36.66;95150.97;5096567;28;20049;-68
2021/09/04 09:59:43;;;;;;;2.58;2.05;;;;;;;26.02;34.11;95143.78;5098724;28;20067;-69
2021/09/04 10:02:13;;;;;;;2.38;1.83;;;;;;;26.12;32.68;95147.94;5091073;28;20039;-68
2021/09/04 10:04:44;;;;;;;3.80;2.08;;;;;;;26.30;32.14;95145.97;5094416;28;20063;-69
2021/09/04 10:07:11;;;;;;;3.20;1.70;;;;;;;26.40;31.75;95150.13;5090902;28;20050;-68
2021/09/04 10:09:39;;;;;;;4.20;2.45;;;;;;;26.59;31.07;95147.03;5099971;27;20054;-68
2021/09/04 10:12:09;;;;;;;2.35;1.42;;;;;;;26.72;32.04;95143.34;5090494;28;20051;-68
2021/09/04 10:14:37;;;;;;;2.72;2.10;;;;;;;27.05;30.86;95142.63;5088800;28;20079;-68
2021/09/04 10:17:05;;;;;;;2.22;1.50;;;;;;;26.90;30.74;95149.31;5088455;28;20048;-68
2021/09/04 10:19:34;;;;;;;1.73;1.35;;;;;;;26.97;30.72;95156.81;5087138;28;20044;-68
2021/09/04 10:22:07;;;;;;;2.17;1.70;;;;;;;26.97;31.52;95154.16;5085768;28;20040;-69
2021/09/04 10:24:43;;;;;;;2.37;2.10;;;;;;;26.82;31.04;95148.31;5084110;28;20566;-68
2021/09/04 10:27:11;;;;;;;2.55;1.67;;;;;;;26.94;32.32;95149.47;5085464;28;20127;-68
2021/09/04 10:29:46;;;;;;;35.35;30.98;;;;;;;27.17;30.49;95153.34;5085859;28;20156;-68
2021/09/04 10:32:15;;;;;;;4.28;2.55;;;;;;;27.53;31.00;95143.91;5086331;28;20524;-68
2021/09/04 10:34:44;;;;;;;2.17;1.63;;;;;;;27.13;30.62;95139.06;5087150;28;20048;-68
2021/09/04 10:37:11;;;;;;;2.65;1.90;;;;;;;26.73;30.01;95144.91;5119422;27;20051;-67
2021/09/04 10:40:03;;;;;;;2.58;2.05;;;;;;;26.70;31.63;95149.03;5086712;28;20040;-68
2021/09/04 10:42:39;;;;;;;19.50;2.15;;;;;;;26.92;31.30;95130.28;5084714;28;20075;-68
2021/09/04 10:45:06;;;;;;;1.88;1.50;;;;;;;27.35;29.75;95127.25;5084480;28;20048;-68
2021/09/04 10:47:45;;;;;;;2.08;1.67;;;;;;;27.21;30.76;95110.72;5092979;28;20035;-68
2021/09/04 10:50:17;;;;;;;2.60;1.33;;;;;;;27.55;29.66;95114.94;5100144;28;20050;-68
2021/09/04 10:52:50;;;;;;;3.08;2.10;;;;;;;27.01;30.58;95117.63;5089169;27;20094;-68
2021/09/04 10:55:27;;;;;;;2.33;1.50;;;;;;;27.18;30.54;95122.81;5090797;28;20035;-68
2021/09/04 10:58:07;;;;;;;3.22;2.25;;;;;;;27.48;29.45;95120.03;5097111;27;20409;-68
2021/09/04 11:00:49;;;;;;;2.08;1.55;;;;;;;28.09;28.42;95115.84;5086786;28;20089;-67
2021/09/04 11:03:21;;;;;;;3.53;1.70;;;;;;;28.30;27.30;95111.13;5087328;28;20040;-68
2021/09/04 11:06:05;;;;;;;2.30;1.55;;;;;;;28.68;28.00;95120.66;5086954;28;20505;-68
2021/09/04 11:08:42;;;;;;;2.03;1.42;;;;;;;28.87;29.29;95122.75;5087221;28;20089;-68
2021/09/04 11:11:35;;;;;;;2.05;1.55;;;;;;;29.04;26.88;95113.59;5085569;28;20063;-68
2021/09/04 11:14:18;;;;;;;4.50;1.90;;;;;;;29.61;25.86;95117.00;5086338;28;20067;-68
2021/09/04 11:16:52;;;;;;;1.80;1.35;;;;;;;29.34;26.81;95114.06;5084793;28;20463;-67
2021/09/04 11:19:31;;;;;;;2.10;1.50;;;;;;;29.52;26.70;95125.22;5088543;28;20408;-68
2021/09/04 11:22:01;;;;;;;3.55;1.63;;;;;;;29.59;25.61;95129.25;5086050;28;20493;-67
2021/09/04 11:24:32;;;;;;;2.15;1.58;;;;;;;29.82;24.51;95126.72;5079734;28;20051;-68
2021/09/04 11:27:06;;;;;;;2.22;1.58;;;;;;;29.52;26.01;95119.88;5085618;28;20089;-68
2021/09/04 11:29:51;;;;;;;;;;;;;;;29.99;26.10;95115.63;5087317;28;20853;-68
2021/09/04 11:32:20;;;;;;;2.40;1.80;;;;;;;29.84;28.13;95119.91;5085351;28;19924;-68
2021/09/04 11:34:52;;;;;;;2.53;1.58;;;;;;;30.14;24.48;95122.09;5086171;28;20428;-68
2021/09/04 11:37:25;;;;;;;2.00;1.45;;;;;;;30.40;23.52;95118.13;5084327;28;20044;-68
2021/09/04 11:39:57;;;;;;;2.15;1.55;;;;;;;30.08;23.10;95128.88;5085862;28;20733;-67